sensor_id;sensor_type;location;lat;lon;timestamp;P1;durP1;ratioP1;P2;durP2;ratioP2
3689;SDS011;1861;50.240;8.596;2023-06-10T00:02:00;9.70;;;5.60;;
3689;SDS011;1861;50.240;8.596;2023-06-10T00:04:30;7.68;;;5.53;;
3689;SDS011;1861;50.240;8.596;2023-06-10T00:06:58;9.40;;;5.77;;
3689;SDS011;1861;50.240;8.596;2023-06-10T00:09:27;8.20;;;6.20;;
3689;SDS011;1861;50.240;8.596;2023-06-10T00:11:57;7.50;;;5.50;;
3689;SDS011;1861;50.240;8.596;2023-06-10T00:14:27;6.60;;;4.70;;
3689;SDS011;1861;50.240;8.596;2023-06-10T00:16:55;8.27;;;5.38;;
3689;SDS011;1861;50.240;8.596;2023-06-10T00:19:23;10.37;;;5.50;;
3689;SDS011;1861;50.240;8.596;2023-06-10T00:21:52;8.63;;;5.60;;
3689;SDS011;1861;50.240;8.596;2023-06-10T00:24:20;6.60;;;5.33;;
3689;SDS011;1861;50.240;8.596;2023-06-10T00:26:48;7.00;;;5.15;;
3689;SDS011;1861;50.240;8.596;2023-06-10T00:29:18;5.80;;;4.73;;
3689;SDS011;1861;50.240;8.596;2023-06-10T00:31:46;5.67;;;4.57;;
3689;SDS011;1861;50.240;8.596;2023-06-10T00:34:15;6.23;;;5.10;;
3689;SDS011;1861;50.240;8.596;2023-06-10T00:36:43;11.47;;;5.43;;
3689;SDS011;1861;50.240;8.596;2023-06-10T00:39:11;6.10;;;4.80;;
3689;SDS011;1861;50.240;8.596;2023-06-10T00:41:39;6.03;;;4.90;;
3689;SDS011;1861;50.240;8.596;2023-06-10T00:44:08;14.43;;;5.97;;
3689;SDS011;1861;50.240;8.596;2023-06-10T00:46:37;8.10;;;4.97;;
3689;SDS011;1861;50.240;8.596;2023-06-10T00:49:06;8.83;;;5.00;;
3689;SDS011;1861;50.240;8.596;2023-06-10T00:51:36;7.30;;;5.53;;
3689;SDS011;1861;50.240;8.596;2023-06-10T00:54:06;5.97;;;4.53;;
3689;SDS011;1861;50.240;8.596;2023-06-10T00:56:35;8.90;;;5.03;;
3689;SDS011;1861;50.240;8.596;2023-06-10T00:59:04;6.00;;;5.03;;
3689;SDS011;1861;50.240;8.596;2023-06-10T01:01:32;6.70;;;5.20;;
3689;SDS011;1861;50.240;8.596;2023-06-10T01:04:03;5.53;;;4.30;;
3689;SDS011;1861;50.240;8.596;2023-06-10T01:06:33;6.47;;;4.67;;
3689;SDS011;1861;50.240;8.596;2023-06-10T01:09:17;8.13;;;5.57;;
3689;SDS011;1861;50.240;8.596;2023-06-10T01:11:52;6.40;;;4.80;;
3689;SDS011;1861;50.240;8.596;2023-06-10T01:14:29;10.95;;;5.80;;
3689;SDS011;1861;50.240;8.596;2023-06-10T01:16:59;10.05;;;5.43;;
3689;SDS011;1861;50.240;8.596;2023-06-10T01:19:32;9.10;;;4.63;;
3689;SDS011;1861;50.240;8.596;2023-06-10T01:22:02;10.83;;;5.00;;
3689;SDS011;1861;50.240;8.596;2023-06-10T01:24:32;9.47;;;5.17;;
3689;SDS011;1861;50.240;8.596;2023-06-10T01:27:01;5.50;;;4.60;;
3689;SDS011;1861;50.240;8.596;2023-06-10T01:29:36;6.95;;;5.57;;
3689;SDS011;1861;50.240;8.596;2023-06-10T01:32:11;6.88;;;5.45;;
3689;SDS011;1861;50.240;8.596;2023-06-10T01:34:44;5.70;;;5.00;;
3689;SDS011;1861;50.240;8.596;2023-06-10T01:37:15;6.57;;;4.27;;
3689;SDS011;1861;50.240;8.596;2023-06-10T01:39:48;7.05;;;5.13;;
3689;SDS011;1861;50.240;8.596;2023-06-10T01:42:17;9.80;;;4.67;;
3689;SDS011;1861;50.240;8.596;2023-06-10T01:44:46;6.67;;;4.87;;
3689;SDS011;1861;50.240;8.596;2023-06-10T01:47:14;7.23;;;4.97;;
3689;SDS011;1861;50.240;8.596;2023-06-10T01:49:43;7.40;;;5.63;;
3689;SDS011;1861;50.240;8.596;2023-06-10T01:52:11;9.73;;;4.95;;
3689;SDS011;1861;50.240;8.596;2023-06-10T01:54:41;5.50;;;4.70;;
3689;SDS011;1861;50.240;8.596;2023-06-10T01:57:10;6.27;;;4.70;;
3689;SDS011;1861;50.240;8.596;2023-06-10T01:59:39;9.53;;;5.23;;
3689;SDS011;1861;50.240;8.596;2023-06-10T02:02:08;6.80;;;5.10;;
3689;SDS011;1861;50.240;8.596;2023-06-10T02:04:37;5.60;;;4.55;;
3689;SDS011;1861;50.240;8.596;2023-06-10T02:07:06;6.10;;;4.45;;
3689;SDS011;1861;50.240;8.596;2023-06-10T02:09:34;7.03;;;5.05;;
3689;SDS011;1861;50.240;8.596;2023-06-10T02:12:05;12.00;;;6.57;;
3689;SDS011;1861;50.240;8.596;2023-06-10T02:14:34;7.50;;;5.07;;
3689;SDS011;1861;50.240;8.596;2023-06-10T02:17:03;8.80;;;5.40;;
3689;SDS011;1861;50.240;8.596;2023-06-10T02:19:31;6.78;;;4.97;;
3689;SDS011;1861;50.240;8.596;2023-06-10T02:22:03;9.00;;;5.93;;
3689;SDS011;1861;50.240;8.596;2023-06-10T02:24:31;6.50;;;4.53;;
3689;SDS011;1861;50.240;8.596;2023-06-10T02:26:59;7.97;;;4.97;;
3689;SDS011;1861;50.240;8.596;2023-06-10T02:29:29;7.97;;;5.23;;
3689;SDS011;1861;50.240;8.596;2023-06-10T02:31:58;6.93;;;5.05;;
3689;SDS011;1861;50.240;8.596;2023-06-10T02:34:26;10.88;;;4.82;;
3689;SDS011;1861;50.240;8.596;2023-06-10T02:36:56;5.55;;;4.88;;
3689;SDS011;1861;50.240;8.596;2023-06-10T02:39:24;7.53;;;5.32;;
3689;SDS011;1861;50.240;8.596;2023-06-10T02:41:53;9.97;;;5.87;;
3689;SDS011;1861;50.240;8.596;2023-06-10T02:44:21;8.25;;;5.57;;
3689;SDS011;1861;50.240;8.596;2023-06-10T02:46:51;6.00;;;5.30;;
3689;SDS011;1861;50.240;8.596;2023-06-10T02:49:19;7.70;;;5.63;;
3689;SDS011;1861;50.240;8.596;2023-06-10T02:51:47;9.15;;;4.75;;
3689;SDS011;1861;50.240;8.596;2023-06-10T02:54:20;6.93;;;5.33;;
3689;SDS011;1861;50.240;8.596;2023-06-10T02:56:50;5.67;;;5.00;;
3689;SDS011;1861;50.240;8.596;2023-06-10T02:59:22;9.10;;;6.55;;
3689;SDS011;1861;50.240;8.596;2023-06-10T03:01:52;8.83;;;5.60;;
3689;SDS011;1861;50.240;8.596;2023-06-10T03:04:22;8.98;;;6.07;;
3689;SDS011;1861;50.240;8.596;2023-06-10T03:06:59;6.60;;;5.60;;
3689;SDS011;1861;50.240;8.596;2023-06-10T03:09:33;8.68;;;6.15;;
3689;SDS011;1861;50.240;8.596;2023-06-10T03:12:03;8.73;;;5.40;;
3689;SDS011;1861;50.240;8.596;2023-06-10T03:14:38;8.30;;;5.17;;
3689;SDS011;1861;50.240;8.596;2023-06-10T03:17:08;14.73;;;5.50;;
3689;SDS011;1861;50.240;8.596;2023-06-10T03:19:39;8.80;;;5.43;;
3689;SDS011;1861;50.240;8.596;2023-06-10T03:22:08;8.70;;;5.47;;
3689;SDS011;1861;50.240;8.596;2023-06-10T03:24:42;5.83;;;4.83;;
3689;SDS011;1861;50.240;8.596;2023-06-10T03:27:13;6.33;;;5.20;;
3689;SDS011;1861;50.240;8.596;2023-06-10T03:29:43;5.83;;;4.90;;
3689;SDS011;1861;50.240;8.596;2023-06-10T03:32:13;7.75;;;5.32;;
3689;SDS011;1861;50.240;8.596;2023-06-10T03:34:43;6.72;;;5.88;;
3689;SDS011;1861;50.240;8.596;2023-06-10T03:37:14;7.10;;;4.80;;
3689;SDS011;1861;50.240;8.596;2023-06-10T03:39:45;5.93;;;5.03;;
3689;SDS011;1861;50.240;8.596;2023-06-10T03:42:13;6.63;;;5.33;;
3689;SDS011;1861;50.240;8.596;2023-06-10T03:44:41;7.27;;;5.63;;
3689;SDS011;1861;50.240;8.596;2023-06-10T03:47:10;8.02;;;4.53;;
3689;SDS011;1861;50.240;8.596;2023-06-10T03:49:40;5.43;;;4.77;;
3689;SDS011;1861;50.240;8.596;2023-06-10T03:52:10;8.47;;;5.50;;
3689;SDS011;1861;50.240;8.596;2023-06-10T03:54:38;11.90;;;4.90;;
3689;SDS011;1861;50.240;8.596;2023-06-10T03:57:06;7.50;;;5.03;;
3689;SDS011;1861;50.240;8.596;2023-06-10T03:59:34;5.97;;;4.70;;
3689;SDS011;1861;50.240;8.596;2023-06-10T04:02:03;8.30;;;5.10;;
3689;SDS011;1861;50.240;8.596;2023-06-10T04:04:33;6.70;;;5.00;;
3689;SDS011;1861;50.240;8.596;2023-06-10T04:07:03;7.17;;;4.63;;
3689;SDS011;1861;50.240;8.596;2023-06-10T04:09:31;6.53;;;5.20;;
3689;SDS011;1861;50.240;8.596;2023-06-10T04:11:59;8.83;;;5.33;;
3689;SDS011;1861;50.240;8.596;2023-06-10T04:14:28;5.90;;;4.78;;
3689;SDS011;1861;50.240;8.596;2023-06-10T04:16:57;9.00;;;6.60;;
3689;SDS011;1861;50.240;8.596;2023-06-10T04:19:25;10.00;;;5.37;;
3689;SDS011;1861;50.240;8.596;2023-06-10T04:21:55;11.70;;;5.05;;
3689;SDS011;1861;50.240;8.596;2023-06-10T04:24:25;5.95;;;4.68;;
3689;SDS011;1861;50.240;8.596;2023-06-10T04:26:53;6.70;;;5.20;;
3689;SDS011;1861;50.240;8.596;2023-06-10T04:29:21;5.53;;;4.23;;
3689;SDS011;1861;50.240;8.596;2023-06-10T04:31:52;9.27;;;4.40;;
3689;SDS011;1861;50.240;8.596;2023-06-10T04:34:20;7.23;;;4.70;;
3689;SDS011;1861;50.240;8.596;2023-06-10T04:36:49;7.30;;;5.23;;
3689;SDS011;1861;50.240;8.596;2023-06-10T04:39:18;7.13;;;4.80;;
3689;SDS011;1861;50.240;8.596;2023-06-10T04:41:48;10.60;;;5.40;;
3689;SDS011;1861;50.240;8.596;2023-06-10T04:44:17;7.15;;;5.07;;
3689;SDS011;1861;50.240;8.596;2023-06-10T04:46:46;6.57;;;4.70;;
3689;SDS011;1861;50.240;8.596;2023-06-10T04:49:14;16.77;;;5.00;;
3689;SDS011;1861;50.240;8.596;2023-06-10T04:51:42;6.07;;;4.57;;
3689;SDS011;1861;50.240;8.596;2023-06-10T04:54:11;6.13;;;4.95;;
3689;SDS011;1861;50.240;8.596;2023-06-10T04:56:39;7.57;;;5.05;;
3689;SDS011;1861;50.240;8.596;2023-06-10T04:59:09;5.13;;;4.40;;
3689;SDS011;1861;50.240;8.596;2023-06-10T05:01:37;6.13;;;4.20;;
3689;SDS011;1861;50.240;8.596;2023-06-10T05:04:05;6.77;;;4.60;;
3689;SDS011;1861;50.240;8.596;2023-06-10T05:06:33;8.47;;;5.17;;
3689;SDS011;1861;50.240;8.596;2023-06-10T05:09:02;6.87;;;4.60;;
3689;SDS011;1861;50.240;8.596;2023-06-10T05:11:30;7.57;;;4.60;;
3689;SDS011;1861;50.240;8.596;2023-06-10T05:13:59;8.55;;;5.03;;
3689;SDS011;1861;50.240;8.596;2023-06-10T05:16:28;7.23;;;4.90;;
3689;SDS011;1861;50.240;8.596;2023-06-10T05:18:56;4.70;;;4.03;;
3689;SDS011;1861;50.240;8.596;2023-06-10T05:21:25;7.33;;;4.77;;
3689;SDS011;1861;50.240;8.596;2023-06-10T05:23:53;7.80;;;4.87;;
3689;SDS011;1861;50.240;8.596;2023-06-10T05:26:21;6.00;;;4.73;;
3689;SDS011;1861;50.240;8.596;2023-06-10T05:28:49;8.20;;;4.90;;
3689;SDS011;1861;50.240;8.596;2023-06-10T05:31:17;9.60;;;4.50;;
3689;SDS011;1861;50.240;8.596;2023-06-10T05:33:47;5.85;;;4.55;;
3689;SDS011;1861;50.240;8.596;2023-06-10T05:36:15;7.60;;;4.70;;
3689;SDS011;1861;50.240;8.596;2023-06-10T05:38:44;7.30;;;4.53;;
3689;SDS011;1861;50.240;8.596;2023-06-10T05:41:12;9.33;;;4.80;;
3689;SDS011;1861;50.240;8.596;2023-06-10T05:43:40;8.57;;;4.95;;
3689;SDS011;1861;50.240;8.596;2023-06-10T05:46:08;4.67;;;3.73;;
3689;SDS011;1861;50.240;8.596;2023-06-10T05:48:37;7.03;;;4.53;;
3689;SDS011;1861;50.240;8.596;2023-06-10T05:51:06;8.15;;;4.45;;
3689;SDS011;1861;50.240;8.596;2023-06-10T05:53:34;5.32;;;4.47;;
3689;SDS011;1861;50.240;8.596;2023-06-10T05:56:03;4.95;;;4.18;;
3689;SDS011;1861;50.240;8.596;2023-06-10T05:58:31;6.53;;;4.97;;
3689;SDS011;1861;50.240;8.596;2023-06-10T06:00:59;10.40;;;5.45;;
3689;SDS011;1861;50.240;8.596;2023-06-10T06:03:27;5.13;;;4.37;;
3689;SDS011;1861;50.240;8.596;2023-06-10T06:05:56;6.33;;;5.10;;
3689;SDS011;1861;50.240;8.596;2023-06-10T06:08:25;6.40;;;5.30;;
3689;SDS011;1861;50.240;8.596;2023-06-10T06:10:54;6.87;;;4.63;;
3689;SDS011;1861;50.240;8.596;2023-06-10T06:13:22;5.07;;;4.03;;
3689;SDS011;1861;50.240;8.596;2023-06-10T06:15:50;7.00;;;4.67;;
3689;SDS011;1861;50.240;8.596;2023-06-10T06:18:19;7.70;;;5.17;;
3689;SDS011;1861;50.240;8.596;2023-06-10T06:20:47;5.23;;;4.73;;
3689;SDS011;1861;50.240;8.596;2023-06-10T06:23:15;8.90;;;5.10;;
3689;SDS011;1861;50.240;8.596;2023-06-10T06:25:45;7.70;;;5.23;;
3689;SDS011;1861;50.240;8.596;2023-06-10T06:28:13;7.38;;;4.97;;
3689;SDS011;1861;50.240;8.596;2023-06-10T06:30:41;5.10;;;4.27;;
3689;SDS011;1861;50.240;8.596;2023-06-10T06:33:09;4.90;;;4.03;;
3689;SDS011;1861;50.240;8.596;2023-06-10T06:35:38;19.05;;;4.90;;
3689;SDS011;1861;50.240;8.596;2023-06-10T06:38:06;6.60;;;4.80;;
3689;SDS011;1861;50.240;8.596;2023-06-10T06:40:35;6.43;;;4.97;;
3689;SDS011;1861;50.240;8.596;2023-06-10T06:43:04;6.73;;;4.70;;
3689;SDS011;1861;50.240;8.596;2023-06-10T06:45:51;6.18;;;4.65;;
3689;SDS011;1861;50.240;8.596;2023-06-10T06:48:19;5.50;;;4.80;;
3689;SDS011;1861;50.240;8.596;2023-06-10T06:50:47;5.57;;;4.97;;
3689;SDS011;1861;50.240;8.596;2023-06-10T06:53:16;6.67;;;5.10;;
3689;SDS011;1861;50.240;8.596;2023-06-10T06:55:44;5.82;;;4.30;;
3689;SDS011;1861;50.240;8.596;2023-06-10T06:58:13;7.90;;;5.63;;
3689;SDS011;1861;50.240;8.596;2023-06-10T07:00:42;5.23;;;4.63;;
3689;SDS011;1861;50.240;8.596;2023-06-10T07:03:10;6.90;;;4.68;;
3689;SDS011;1861;50.240;8.596;2023-06-10T07:05:38;6.05;;;4.85;;
3689;SDS011;1861;50.240;8.596;2023-06-10T07:08:07;6.27;;;4.63;;
3689;SDS011;1861;50.240;8.596;2023-06-10T07:10:35;8.33;;;4.63;;
3689;SDS011;1861;50.240;8.596;2023-06-10T07:13:03;11.00;;;5.50;;
3689;SDS011;1861;50.240;8.596;2023-06-10T07:15:33;7.30;;;5.00;;
3689;SDS011;1861;50.240;8.596;2023-06-10T07:18:01;8.02;;;4.88;;
3689;SDS011;1861;50.240;8.596;2023-06-10T07:20:29;5.18;;;4.57;;
3689;SDS011;1861;50.240;8.596;2023-06-10T07:22:58;5.10;;;4.50;;
3689;SDS011;1861;50.240;8.596;2023-06-10T07:25:26;6.03;;;4.20;;
3689;SDS011;1861;50.240;8.596;2023-06-10T07:27:54;4.53;;;3.97;;
3689;SDS011;1861;50.240;8.596;2023-06-10T07:30:22;4.90;;;4.40;;
3689;SDS011;1861;50.240;8.596;2023-06-10T07:32:52;10.50;;;5.43;;
3689;SDS011;1861;50.240;8.596;2023-06-10T07:35:20;5.73;;;4.40;;
3689;SDS011;1861;50.240;8.596;2023-06-10T07:37:49;6.57;;;5.20;;
3689;SDS011;1861;50.240;8.596;2023-06-10T07:40:17;6.73;;;5.60;;
3689;SDS011;1861;50.240;8.596;2023-06-10T07:42:45;8.80;;;5.40;;
3689;SDS011;1861;50.240;8.596;2023-06-10T07:45:13;6.82;;;5.78;;
3689;SDS011;1861;50.240;8.596;2023-06-10T07:47:42;9.27;;;5.35;;
3689;SDS011;1861;50.240;8.596;2023-06-10T07:50:12;10.30;;;6.10;;
3689;SDS011;1861;50.240;8.596;2023-06-10T07:52:40;6.87;;;5.63;;
3689;SDS011;1861;50.240;8.596;2023-06-10T07:55:08;6.63;;;4.45;;
3689;SDS011;1861;50.240;8.596;2023-06-10T07:57:37;6.25;;;5.00;;
3689;SDS011;1861;50.240;8.596;2023-06-10T08:00:06;6.85;;;5.28;;
3689;SDS011;1861;50.240;8.596;2023-06-10T08:02:39;9.25;;;5.65;;
3689;SDS011;1861;50.240;8.596;2023-06-10T08:05:07;14.15;;;6.10;;
3689;SDS011;1861;50.240;8.596;2023-06-10T08:07:38;8.00;;;5.85;;
3689;SDS011;1861;50.240;8.596;2023-06-10T08:10:08;10.53;;;5.83;;
3689;SDS011;1861;50.240;8.596;2023-06-10T08:12:36;8.43;;;6.20;;
3689;SDS011;1861;50.240;8.596;2023-06-10T08:15:05;5.68;;;4.72;;
3689;SDS011;1861;50.240;8.596;2023-06-10T08:17:34;7.67;;;4.83;;
3689;SDS011;1861;50.240;8.596;2023-06-10T08:20:03;6.10;;;4.80;;
3689;SDS011;1861;50.240;8.596;2023-06-10T08:22:32;5.00;;;4.50;;
3689;SDS011;1861;50.240;8.596;2023-06-10T08:25:01;6.27;;;4.80;;
3689;SDS011;1861;50.240;8.596;2023-06-10T08:27:30;7.03;;;4.60;;
3689;SDS011;1861;50.240;8.596;2023-06-10T08:29:58;7.00;;;4.93;;
3689;SDS011;1861;50.240;8.596;2023-06-10T08:32:27;5.20;;;4.25;;
3689;SDS011;1861;50.240;8.596;2023-06-10T08:34:56;5.88;;;4.72;;
3689;SDS011;1861;50.240;8.596;2023-06-10T08:37:24;4.87;;;4.37;;
3689;SDS011;1861;50.240;8.596;2023-06-10T08:39:53;5.70;;;4.30;;
3689;SDS011;1861;50.240;8.596;2023-06-10T08:42:23;5.50;;;4.37;;
3689;SDS011;1861;50.240;8.596;2023-06-10T08:44:55;5.13;;;4.13;;
3689;SDS011;1861;50.240;8.596;2023-06-10T08:47:30;6.30;;;4.20;;
3689;SDS011;1861;50.240;8.596;2023-06-10T08:50:04;5.03;;;3.97;;
3689;SDS011;1861;50.240;8.596;2023-06-10T08:52:37;5.25;;;4.68;;
3689;SDS011;1861;50.240;8.596;2023-06-10T08:55:10;7.80;;;4.60;;
3689;SDS011;1861;50.240;8.596;2023-06-10T08:57:41;4.50;;;3.90;;
3689;SDS011;1861;50.240;8.596;2023-06-10T09:00:11;7.33;;;4.73;;
3689;SDS011;1861;50.240;8.596;2023-06-10T09:02:40;5.73;;;4.57;;
3689;SDS011;1861;50.240;8.596;2023-06-10T09:05:09;9.67;;;4.83;;
3689;SDS011;1861;50.240;8.596;2023-06-10T09:07:37;5.80;;;4.55;;
3689;SDS011;1861;50.240;8.596;2023-06-10T09:10:06;4.87;;;4.20;;
3689;SDS011;1861;50.240;8.596;2023-06-10T09:12:36;7.63;;;4.33;;
3689;SDS011;1861;50.240;8.596;2023-06-10T09:15:07;9.83;;;5.07;;
3689;SDS011;1861;50.240;8.596;2023-06-10T09:17:36;7.20;;;4.60;;
3689;SDS011;1861;50.240;8.596;2023-06-10T09:20:05;6.00;;;4.40;;
3689;SDS011;1861;50.240;8.596;2023-06-10T09:22:36;4.40;;;4.00;;
3689;SDS011;1861;50.240;8.596;2023-06-10T09:25:05;10.55;;;4.90;;
3689;SDS011;1861;50.240;8.596;2023-06-10T09:27:43;7.43;;;4.90;;
3689;SDS011;1861;50.240;8.596;2023-06-10T09:30:27;10.77;;;4.40;;
3689;SDS011;1861;50.240;8.596;2023-06-10T09:32:56;9.93;;;4.33;;
3689;SDS011;1861;50.240;8.596;2023-06-10T09:35:27;4.80;;;4.10;;
3689;SDS011;1861;50.240;8.596;2023-06-10T09:37:56;6.90;;;5.20;;
3689;SDS011;1861;50.240;8.596;2023-06-10T09:40:25;6.00;;;4.80;;
3689;SDS011;1861;50.240;8.596;2023-06-10T09:42:55;5.90;;;4.63;;
3689;SDS011;1861;50.240;8.596;2023-06-10T09:45:29;7.40;;;4.30;;
3689;SDS011;1861;50.240;8.596;2023-06-10T09:47:58;6.27;;;4.50;;
3689;SDS011;1861;50.240;8.596;2023-06-10T09:50:26;5.17;;;4.20;;
3689;SDS011;1861;50.240;8.596;2023-06-10T09:52:55;9.33;;;4.77;;
3689;SDS011;1861;50.240;8.596;2023-06-10T09:55:23;5.30;;;4.40;;
3689;SDS011;1861;50.240;8.596;2023-06-10T09:57:52;8.33;;;4.73;;
3689;SDS011;1861;50.240;8.596;2023-06-10T10:00:22;4.90;;;4.40;;
3689;SDS011;1861;50.240;8.596;2023-06-10T10:02:53;8.40;;;4.40;;
3689;SDS011;1861;50.240;8.596;2023-06-10T10:05:22;5.40;;;3.97;;
3689;SDS011;1861;50.240;8.596;2023-06-10T10:07:51;5.83;;;3.37;;
3689;SDS011;1861;50.240;8.596;2023-06-10T10:10:20;5.23;;;4.10;;
3689;SDS011;1861;50.240;8.596;2023-06-10T10:12:51;4.57;;;4.13;;
3689;SDS011;1861;50.240;8.596;2023-06-10T10:15:22;5.70;;;4.67;;
3689;SDS011;1861;50.240;8.596;2023-06-10T10:17:56;5.00;;;4.17;;
3689;SDS011;1861;50.240;8.596;2023-06-10T10:20:29;5.90;;;4.30;;
3689;SDS011;1861;50.240;8.596;2023-06-10T10:23:02;5.10;;;4.23;;
3689;SDS011;1861;50.240;8.596;2023-06-10T10:25:32;7.23;;;5.60;;
3689;SDS011;1861;50.240;8.596;2023-06-10T10:28:05;6.43;;;4.77;;
3689;SDS011;1861;50.240;8.596;2023-06-10T10:30:37;7.27;;;4.40;;
3689;SDS011;1861;50.240;8.596;2023-06-10T10:33:12;7.17;;;4.40;;
3689;SDS011;1861;50.240;8.596;2023-06-10T10:35:43;4.47;;;3.80;;
3689;SDS011;1861;50.240;8.596;2023-06-10T10:38:13;4.33;;;3.77;;
3689;SDS011;1861;50.240;8.596;2023-06-10T10:40:42;4.22;;;3.83;;
3689;SDS011;1861;50.240;8.596;2023-06-10T10:43:12;7.13;;;3.70;;
3689;SDS011;1861;50.240;8.596;2023-06-10T10:45:41;5.40;;;3.80;;
3689;SDS011;1861;50.240;8.596;2023-06-10T10:48:10;5.87;;;4.30;;
3689;SDS011;1861;50.240;8.596;2023-06-10T10:50:39;7.83;;;4.40;;
3689;SDS011;1861;50.240;8.596;2023-06-10T10:53:08;5.00;;;4.00;;
3689;SDS011;1861;50.240;8.596;2023-06-10T10:55:36;4.40;;;4.00;;
3689;SDS011;1861;50.240;8.596;2023-06-10T10:58:04;10.27;;;4.63;;
3689;SDS011;1861;50.240;8.596;2023-06-10T11:00:34;6.10;;;4.50;;
3689;SDS011;1861;50.240;8.596;2023-06-10T11:03:05;5.97;;;4.53;;
3689;SDS011;1861;50.240;8.596;2023-06-10T11:05:40;8.43;;;4.25;;
3689;SDS011;1861;50.240;8.596;2023-06-10T11:08:11;4.93;;;3.80;;
3689;SDS011;1861;50.240;8.596;2023-06-10T11:10:40;5.07;;;3.50;;
3689;SDS011;1861;50.240;8.596;2023-06-10T11:13:09;4.05;;;3.70;;
3689;SDS011;1861;50.240;8.596;2023-06-10T11:15:43;4.90;;;3.70;;
3689;SDS011;1861;50.240;8.596;2023-06-10T11:18:23;3.67;;;3.27;;
3689;SDS011;1861;50.240;8.596;2023-06-10T11:21:00;3.93;;;3.50;;
3689;SDS011;1861;50.240;8.596;2023-06-10T11:23:30;3.60;;;3.30;;
3689;SDS011;1861;50.240;8.596;2023-06-10T11:29:06;4.63;;;4.10;;
3689;SDS011;1861;50.240;8.596;2023-06-10T11:31:39;4.90;;;3.40;;
3689;SDS011;1861;50.240;8.596;2023-06-10T11:34:11;4.37;;;3.60;;
3689;SDS011;1861;50.240;8.596;2023-06-10T11:36:42;13.63;;;3.80;;
3689;SDS011;1861;50.240;8.596;2023-06-10T11:39:12;8.57;;;3.75;;
3689;SDS011;1861;50.240;8.596;2023-06-10T11:41:40;4.25;;;3.85;;
3689;SDS011;1861;50.240;8.596;2023-06-10T11:44:09;4.00;;;3.60;;
3689;SDS011;1861;50.240;8.596;2023-06-10T11:46:41;3.30;;;2.97;;
3689;SDS011;1861;50.240;8.596;2023-06-10T11:49:11;4.30;;;3.70;;
3689;SDS011;1861;50.240;8.596;2023-06-10T11:51:39;7.70;;;5.97;;
3689;SDS011;1861;50.240;8.596;2023-06-10T11:54:16;10.97;;;6.90;;
3689;SDS011;1861;50.240;8.596;2023-06-10T11:56:45;8.57;;;6.43;;
3689;SDS011;1861;50.240;8.596;2023-06-10T11:59:14;8.30;;;5.93;;
3689;SDS011;1861;50.240;8.596;2023-06-10T12:01:43;8.87;;;6.33;;
3689;SDS011;1861;50.240;8.596;2023-06-10T12:04:14;8.80;;;7.20;;
3689;SDS011;1861;50.240;8.596;2023-06-10T12:06:46;12.13;;;8.30;;
3689;SDS011;1861;50.240;8.596;2023-06-10T12:09:17;6.88;;;5.78;;
3689;SDS011;1861;50.240;8.596;2023-06-10T12:11:53;7.40;;;5.90;;
3689;SDS011;1861;50.240;8.596;2023-06-10T12:17:22;6.53;;;5.43;;
3689;SDS011;1861;50.240;8.596;2023-06-10T12:19:51;6.57;;;4.88;;
3689;SDS011;1861;50.240;8.596;2023-06-10T12:22:21;7.00;;;5.27;;
3689;SDS011;1861;50.240;8.596;2023-06-10T12:24:59;6.22;;;4.50;;
3689;SDS011;1861;50.240;8.596;2023-06-10T12:27:29;9.70;;;4.22;;
3689;SDS011;1861;50.240;8.596;2023-06-10T12:29:58;15.33;;;4.87;;
3689;SDS011;1861;50.240;8.596;2023-06-10T12:32:38;7.97;;;5.33;;
3689;SDS011;1861;50.240;8.596;2023-06-10T12:35:09;5.00;;;4.50;;
3689;SDS011;1861;50.240;8.596;2023-06-10T12:37:40;6.60;;;5.35;;
3689;SDS011;1861;50.240;8.596;2023-06-10T12:40:09;8.82;;;5.20;;
3689;SDS011;1861;50.240;8.596;2023-06-10T12:42:38;4.90;;;4.40;;
3689;SDS011;1861;50.240;8.596;2023-06-10T12:45:08;5.37;;;4.30;;
3689;SDS011;1861;50.240;8.596;2023-06-10T12:47:39;4.83;;;4.30;;
3689;SDS011;1861;50.240;8.596;2023-06-10T12:50:08;4.53;;;4.10;;
3689;SDS011;1861;50.240;8.596;2023-06-10T12:52:38;4.40;;;3.70;;
3689;SDS011;1861;50.240;8.596;2023-06-10T12:55:09;4.63;;;4.13;;
3689;SDS011;1861;50.240;8.596;2023-06-10T12:57:46;4.60;;;3.60;;
3689;SDS011;1861;50.240;8.596;2023-06-10T13:00:16;6.63;;;3.97;;
3689;SDS011;1861;50.240;8.596;2023-06-10T13:02:46;5.33;;;4.10;;
3689;SDS011;1861;50.240;8.596;2023-06-10T13:05:14;10.05;;;4.63;;
3689;SDS011;1861;50.240;8.596;2023-06-10T13:07:45;4.22;;;3.22;;
3689;SDS011;1861;50.240;8.596;2023-06-10T13:10:14;4.78;;;3.47;;
3689;SDS011;1861;50.240;8.596;2023-06-10T13:12:42;4.70;;;3.90;;
3689;SDS011;1861;50.240;8.596;2023-06-10T13:15:14;4.20;;;3.53;;
3689;SDS011;1861;50.240;8.596;2023-06-10T13:17:43;4.13;;;3.80;;
3689;SDS011;1861;50.240;8.596;2023-06-10T13:20:16;3.65;;;3.28;;
3689;SDS011;1861;50.240;8.596;2023-06-10T13:22:46;4.53;;;3.90;;
3689;SDS011;1861;50.240;8.596;2023-06-10T13:25:14;5.93;;;3.63;;
3689;SDS011;1861;50.240;8.596;2023-06-10T13:27:42;8.83;;;4.23;;
3689;SDS011;1861;50.240;8.596;2023-06-10T13:30:11;4.35;;;3.95;;
3689;SDS011;1861;50.240;8.596;2023-06-10T13:32:39;5.40;;;3.80;;
3689;SDS011;1861;50.240;8.596;2023-06-10T13:35:08;5.63;;;3.70;;
3689;SDS011;1861;50.240;8.596;2023-06-10T13:37:36;4.50;;;3.30;;
3689;SDS011;1861;50.240;8.596;2023-06-10T13:40:07;4.60;;;4.20;;
3689;SDS011;1861;50.240;8.596;2023-06-10T13:42:36;4.93;;;3.85;;
3689;SDS011;1861;50.240;8.596;2023-06-10T13:45:04;4.73;;;4.00;;
3689;SDS011;1861;50.240;8.596;2023-06-10T13:47:36;4.05;;;3.63;;
3689;SDS011;1861;50.240;8.596;2023-06-10T13:50:05;4.27;;;3.90;;
3689;SDS011;1861;50.240;8.596;2023-06-10T13:52:34;5.75;;;3.85;;
3689;SDS011;1861;50.240;8.596;2023-06-10T13:55:03;3.67;;;3.38;;
3689;SDS011;1861;50.240;8.596;2023-06-10T13:57:33;4.03;;;3.63;;
3689;SDS011;1861;50.240;8.596;2023-06-10T14:00:01;8.90;;;3.85;;
3689;SDS011;1861;50.240;8.596;2023-06-10T14:02:30;14.55;;;4.20;;
3689;SDS011;1861;50.240;8.596;2023-06-10T14:04:58;4.32;;;3.90;;
3689;SDS011;1861;50.240;8.596;2023-06-10T14:07:28;4.20;;;3.80;;
3689;SDS011;1861;50.240;8.596;2023-06-10T14:09:56;4.18;;;3.58;;
3689;SDS011;1861;50.240;8.596;2023-06-10T14:12:25;3.20;;;3.00;;
3689;SDS011;1861;50.240;8.596;2023-06-10T14:14:54;4.50;;;3.43;;
3689;SDS011;1861;50.240;8.596;2023-06-10T14:17:23;12.80;;;3.73;;
3689;SDS011;1861;50.240;8.596;2023-06-10T14:19:51;5.15;;;4.07;;
3689;SDS011;1861;50.240;8.596;2023-06-10T14:22:19;5.53;;;4.17;;
3689;SDS011;1861;50.240;8.596;2023-06-10T14:24:47;7.90;;;4.63;;
3689;SDS011;1861;50.240;8.596;2023-06-10T14:27:15;10.73;;;4.47;;
3689;SDS011;1861;50.240;8.596;2023-06-10T14:29:44;7.03;;;4.20;;
3689;SDS011;1861;50.240;8.596;2023-06-10T14:32:13;5.47;;;3.90;;
3689;SDS011;1861;50.240;8.596;2023-06-10T14:34:41;5.37;;;4.47;;
3689;SDS011;1861;50.240;8.596;2023-06-10T14:37:11;4.22;;;3.70;;
3689;SDS011;1861;50.240;8.596;2023-06-10T14:39:39;4.30;;;3.80;;
3689;SDS011;1861;50.240;8.596;2023-06-10T14:42:07;4.65;;;4.20;;
3689;SDS011;1861;50.240;8.596;2023-06-10T14:44:35;6.70;;;4.90;;
3689;SDS011;1861;50.240;8.596;2023-06-10T14:47:04;4.37;;;3.47;;
3689;SDS011;1861;50.240;8.596;2023-06-10T14:49:34;4.95;;;3.83;;
3689;SDS011;1861;50.240;8.596;2023-06-10T14:52:02;4.25;;;3.60;;
3689;SDS011;1861;50.240;8.596;2023-06-10T14:54:30;8.07;;;3.75;;
3689;SDS011;1861;50.240;8.596;2023-06-10T14:56:58;4.40;;;3.80;;
3689;SDS011;1861;50.240;8.596;2023-06-10T14:59:27;4.40;;;4.00;;
3689;SDS011;1861;50.240;8.596;2023-06-10T15:01:55;3.70;;;3.40;;
3689;SDS011;1861;50.240;8.596;2023-06-10T15:04:24;3.55;;;3.25;;
3689;SDS011;1861;50.240;8.596;2023-06-10T15:06:53;4.30;;;3.30;;
3689;SDS011;1861;50.240;8.596;2023-06-10T15:09:21;3.45;;;3.13;;
3689;SDS011;1861;50.240;8.596;2023-06-10T15:11:50;3.90;;;3.45;;
3689;SDS011;1861;50.240;8.596;2023-06-10T15:14:18;4.18;;;3.80;;
3689;SDS011;1861;50.240;8.596;2023-06-10T15:16:46;5.27;;;3.40;;
3689;SDS011;1861;50.240;8.596;2023-06-10T15:19:15;5.37;;;4.00;;
3689;SDS011;1861;50.240;8.596;2023-06-10T15:21:43;3.55;;;3.25;;
3689;SDS011;1861;50.240;8.596;2023-06-10T15:24:12;4.10;;;3.40;;
3689;SDS011;1861;50.240;8.596;2023-06-10T15:26:41;3.60;;;2.90;;
3689;SDS011;1861;50.240;8.596;2023-06-10T15:29:09;4.82;;;3.60;;
3689;SDS011;1861;50.240;8.596;2023-06-10T15:31:37;4.43;;;3.53;;
3689;SDS011;1861;50.240;8.596;2023-06-10T15:34:05;3.90;;;3.53;;
3689;SDS011;1861;50.240;8.596;2023-06-10T15:36:35;3.80;;;3.50;;